KHGR/HGR METAR and TAF weather

Enter ICAO airport designator
Station Type Date Time Source
KHGR METAR 2019/05/27 08:53 UTC NOAA

KHGR 270853Z AUTO VRB03KT 10SM OVC060 20/17 A2995 RMK AO2 SLP145 T02000172 53002


Station Type Date Time Source
KHGR Decoded METAR 2019/05/27 08:53 UTC NOAA

HAGERSTOWN REGIONAL AIRPORT, MD, United States (KHGR) 39-42N 077-44W 224M
May 27, 2019 - 04:53 AM EDT / 2019.05.27 0853 UTC
Wind: Variable at 3 MPH (3 KT):0
Visibility: 10 mile(s):0
Sky conditions: overcast
Temperature: 68.0 F (20.0 C)
Dew Point: 63.0 F (17.2 C)
Relative Humidity: 83%
Pressure (altimeter): 29.95 in. Hg (1014 hPa)
Pressure tendency: 0.01 inches (0.2 hPa) higher than three hours ago
ob: KHGR 270853Z AUTO VRB03KT 10SM OVC060 20/17 A2995 RMK AO2 SLP145 T02000172 53002
cycle: 9

Station Type Date Time Source
KHGR TAF UTC NOAA

Error!

Example: see airport list